Time;durP1;ratioP1;P1;durP2;ratioP2;P2;SDS_P1;SDS_P2;PMS_P1;PMS_P2;Temp;Humidity;BMP_temperature;BMP_pressure;BME280_temperature;BME280_humidity;BME280_pressure;Samples;Min_cycle;Max_cycle;Signal;HPM_P1;HPM_P2
2021/11/22 06:24:47;;;;;;;128.13;65.83;;;102.70;2227.20;;;;;;4456309;23;20303;-79
2021/11/22 06:27:17;;;;;;;114.57;61.37;;;102.80;2227.20;;;;;;4878198;29;20060;-79
2021/11/22 06:33:40;;;;;;;109.20;58.27;;;102.80;2227.20;;;;;;4844613;29;20075;-80
2021/11/22 07:21:17;;;;;;;161.70;74.60;;;103.20;2227.20;;;;;;4901300;29;20061;-80
2021/11/22 07:26:37;;;;;;;135.07;66.50;;;103.20;2227.20;;;;;;4900799;29;20073;-80
2021/11/22 07:47:33;;;;;;;155.38;68.57;;;128.00;2252.80;;;;;;4915394;29;20052;-81
2021/11/22 07:57:21;;;;;;;162.32;80.78;;;103.30;2227.20;;;;;;4843977;29;20082;-81
2021/11/22 08:03:33;;;;;;;213.38;95.50;;;103.30;2227.20;;;;;;4768033;30;20047;-82
2021/11/22 08:06:32;;;;;;;384.48;127.97;;;103.20;2227.20;;;;;;4778539;30;20051;-80
2021/11/22 08:09:41;;;;;;;291.70;115.90;;;128.00;2252.80;;;;;;4797253;30;20103;-82
2021/11/22 08:15:34;;;;;;;288.70;107.60;;;128.00;2252.80;;;;;;4770940;30;20417;-81
2021/11/22 08:35:14;;;;;;;225.33;103.70;;;103.30;2227.20;;;;;;4874795;29;20117;-81
2021/11/22 08:43:00;;;;;;;454.27;202.35;;;128.10;2252.80;;;;;;4906814;24;20052;-77
2021/11/22 08:45:26;;;;;;;454.90;183.93;;;103.30;2227.20;;;;;;4884690;29;20087;-78
2021/11/22 08:47:54;;;;;;;312.87;132.30;;;103.30;2227.20;;;;;;4885094;29;20079;-78
2021/11/22 08:50:21;;;;;;;236.40;107.50;;;128.00;2252.80;;;;;;4884495;29;20040;-78
2021/11/22 08:52:48;;;;;;;287.97;120.23;;;128.20;2252.80;;;;;;4884572;29;20168;-77
2021/11/22 08:55:15;;;;;;;277.63;113.27;;;128.60;2252.80;;;;;;4884420;29;20056;-77
2021/11/22 08:57:42;;;;;;;279.08;116.35;;;128.60;2252.80;;;;;;4885261;29;20032;-77
2021/11/22 09:00:12;;;;;;;224.07;100.93;;;128.70;2252.80;;;;;;4885366;29;20033;-78
2021/11/22 09:02:38;;;;;;;256.60;105.93;;;128.60;2252.80;;;;;;4884918;29;20028;-78
2021/11/22 09:05:05;;;;;;;273.73;97.05;;;128.80;2252.80;;;;;;4901098;29;20017;-78
2021/11/22 09:07:31;;;;;;;294.80;93.40;;;128.60;2252.80;;;;;;4901342;29;20116;-78
2021/11/22 09:09:56;;;;;;;185.40;84.93;;;128.50;2252.80;;;;;;4885217;29;20072;-78
2021/11/22 09:12:22;;;;;;;214.98;112.05;;;128.50;2252.80;;;;;;4901421;29;20033;-77
2021/11/22 09:14:49;;;;;;;154.52;74.38;;;128.70;2252.80;;;;;;4901458;29;20072;-77
2021/11/22 09:17:17;;;;;;;170.80;95.78;;;128.80;2252.80;;;;;;4883723;29;20032;-77
2021/11/22 09:19:44;;;;;;;164.18;87.05;;;128.90;2252.80;;;;;;4884186;29;20020;-78
2021/11/22 09:22:11;;;;;;;194.93;99.85;;;128.90;2252.80;;;;;;4900118;29;20138;-77
2021/11/22 09:24:39;;;;;;;173.88;103.75;;;153.60;2252.80;;;;;;4899933;29;20029;-77
2021/11/22 09:27:06;;;;;;;167.85;101.88;;;153.70;2252.80;;;;;;4899368;29;20029;-77
2021/11/22 09:29:32;;;;;;;172.80;93.70;;;153.60;2252.80;;;;;;4883516;29;20068;-78
2021/11/22 09:31:58;;;;;;;167.70;90.43;;;153.70;2252.80;;;;;;4886345;29;20036;-78
2021/11/22 09:34:24;;;;;;;131.27;73.32;;;153.80;2252.80;;;;;;4887023;29;20051;-79
2021/11/22 09:36:50;;;;;;;213.85;122.32;;;153.80;2252.80;;;;;;4887499;29;20032;-78
2021/11/22 09:39:18;;;;;;;176.70;94.30;;;153.80;2252.80;;;;;;4885586;29;20036;-78
2021/11/22 09:41:47;;;;;;;244.23;144.25;;;153.80;2252.80;;;;;;4884404;29;20041;-78
2021/11/22 09:44:14;;;;;;;118.72;78.53;;;153.90;2252.80;;;;;;4881918;29;20180;-78
2021/11/22 09:46:40;;;;;;;136.95;72.25;;;154.00;2252.80;;;;;;4884659;29;20035;-78
2021/11/22 09:49:07;;;;;;;122.45;70.60;;;154.00;2252.80;;;;;;4902197;29;20036;-77
2021/11/22 09:51:33;;;;;;;137.93;75.18;;;154.00;2252.80;;;;;;4902936;29;20040;-78
2021/11/22 09:53:59;;;;;;;123.63;68.70;;;154.00;2252.80;;;;;;4885492;29;20021;-77
2021/11/22 09:56:25;;;;;;;126.03;65.55;;;154.10;2252.80;;;;;;4901653;29;20033;-78
2021/11/22 11:16:27;;;;;;;132.23;66.20;;;179.80;2252.80;;;;;;5901817;23;20029;-78
2021/11/22 20:21:58;;;;;;;123.50;64.68;;;204.90;2252.80;;;;;;5340668;23;20093;-79
2021/11/22 20:24:24;;;;;;;155.70;81.90;;;204.90;2252.80;;;;;;4902306;29;20044;-79
2021/11/22 20:29:25;;;;;;;134.18;73.75;;;204.90;2252.80;;;;;;5136732;23;20052;-80
2021/11/22 20:31:51;;;;;;;134.57;73.15;;;204.90;2252.80;;;;;;4884766;29;20031;-80
